sensor_id;sensor_type;location;lat;lon;timestamp;P1;durP1;ratioP1;P2;durP2;ratioP2
20294;SDS011;10306;52.128;5.208;2023-06-05T00:01:42;4.17;;;3.80;;
20294;SDS011;10306;52.128;5.208;2023-06-05T00:04:08;5.10;;;4.00;;
20294;SDS011;10306;52.128;5.208;2023-06-05T00:06:34;5.00;;;4.20;;
20294;SDS011;10306;52.128;5.208;2023-06-05T00:09:02;4.50;;;4.17;;
20294;SDS011;10306;52.128;5.208;2023-06-05T00:11:28;5.27;;;4.30;;
20294;SDS011;10306;52.128;5.208;2023-06-05T00:13:54;4.90;;;4.30;;
20294;SDS011;10306;52.128;5.208;2023-06-05T00:16:20;4.13;;;3.83;;
20294;SDS011;10306;52.128;5.208;2023-06-05T00:18:46;4.70;;;4.30;;
20294;SDS011;10306;52.128;5.208;2023-06-05T00:21:13;4.67;;;4.27;;
20294;SDS011;10306;52.128;5.208;2023-06-05T00:23:40;5.00;;;4.47;;
20294;SDS011;10306;52.128;5.208;2023-06-05T00:26:06;4.60;;;4.30;;
20294;SDS011;10306;52.128;5.208;2023-06-05T00:28:32;4.73;;;4.40;;
20294;SDS011;10306;52.128;5.208;2023-06-05T00:30:58;6.17;;;5.40;;
20294;SDS011;10306;52.128;5.208;2023-06-05T00:33:24;6.03;;;4.83;;
20294;SDS011;10306;52.128;5.208;2023-06-05T00:35:51;4.80;;;4.47;;
20294;SDS011;10306;52.128;5.208;2023-06-05T00:38:16;7.37;;;5.30;;
20294;SDS011;10306;52.128;5.208;2023-06-05T00:40:42;5.00;;;4.40;;
20294;SDS011;10306;52.128;5.208;2023-06-05T00:43:08;10.17;;;4.90;;
20294;SDS011;10306;52.128;5.208;2023-06-05T00:45:34;4.77;;;4.40;;
20294;SDS011;10306;52.128;5.208;2023-06-05T00:48:00;7.17;;;5.03;;
20294;SDS011;10306;52.128;5.208;2023-06-05T00:50:26;5.10;;;4.70;;
20294;SDS011;10306;52.128;5.208;2023-06-05T00:52:56;7.63;;;5.13;;
20294;SDS011;10306;52.128;5.208;2023-06-05T00:55:22;4.60;;;4.30;;
20294;SDS011;10306;52.128;5.208;2023-06-05T00:57:48;5.00;;;4.70;;
20294;SDS011;10306;52.128;5.208;2023-06-05T01:00:14;5.13;;;4.73;;
20294;SDS011;10306;52.128;5.208;2023-06-05T01:02:40;5.30;;;4.90;;
20294;SDS011;10306;52.128;5.208;2023-06-05T01:05:07;5.73;;;4.87;;
20294;SDS011;10306;52.128;5.208;2023-06-05T01:07:33;5.23;;;4.73;;
20294;SDS011;10306;52.128;5.208;2023-06-05T01:10:03;5.27;;;4.93;;
20294;SDS011;10306;52.128;5.208;2023-06-05T01:12:31;5.63;;;5.13;;
20294;SDS011;10306;52.128;5.208;2023-06-05T01:14:59;5.20;;;4.70;;
20294;SDS011;10306;52.128;5.208;2023-06-05T01:17:27;5.67;;;5.03;;
20294;SDS011;10306;52.128;5.208;2023-06-05T01:19:58;5.57;;;5.07;;
20294;SDS011;10306;52.128;5.208;2023-06-05T01:22:35;6.27;;;5.13;;
20294;SDS011;10306;52.128;5.208;2023-06-05T01:25:03;5.77;;;5.33;;
20294;SDS011;10306;52.128;5.208;2023-06-05T01:30:14;5.30;;;4.87;;
20294;SDS011;10306;52.128;5.208;2023-06-05T01:33:00;5.63;;;5.13;;
20294;SDS011;10306;52.128;5.208;2023-06-05T01:35:27;6.17;;;4.30;;
20294;SDS011;10306;52.128;5.208;2023-06-05T01:37:54;5.20;;;4.77;;
20294;SDS011;10306;52.128;5.208;2023-06-05T01:40:23;9.57;;;5.73;;
20294;SDS011;10306;52.128;5.208;2023-06-05T01:42:51;5.60;;;5.03;;
20294;SDS011;10306;52.128;5.208;2023-06-05T01:45:18;5.90;;;5.03;;
20294;SDS011;10306;52.128;5.208;2023-06-05T01:47:44;12.50;;;6.03;;
20294;SDS011;10306;52.128;5.208;2023-06-05T01:50:14;5.53;;;4.93;;
20294;SDS011;10306;52.128;5.208;2023-06-05T01:52:41;6.47;;;5.53;;
20294;SDS011;10306;52.128;5.208;2023-06-05T01:55:08;6.33;;;5.60;;
20294;SDS011;10306;52.128;5.208;2023-06-05T01:57:40;5.73;;;5.30;;
20294;SDS011;10306;52.128;5.208;2023-06-05T02:00:06;9.63;;;5.83;;
20294;SDS011;10306;52.128;5.208;2023-06-05T02:02:36;8.37;;;5.93;;
20294;SDS011;10306;52.128;5.208;2023-06-05T02:05:05;6.03;;;5.53;;
20294;SDS011;10306;52.128;5.208;2023-06-05T02:07:32;6.60;;;4.93;;
20294;SDS011;10306;52.128;5.208;2023-06-05T02:09:59;6.00;;;5.40;;
20294;SDS011;10306;52.128;5.208;2023-06-05T02:12:27;5.77;;;5.17;;
20294;SDS011;10306;52.128;5.208;2023-06-05T02:14:54;7.63;;;5.43;;
20294;SDS011;10306;52.128;5.208;2023-06-05T02:17:21;6.53;;;5.50;;
20294;SDS011;10306;52.128;5.208;2023-06-05T02:19:49;6.77;;;5.57;;
20294;SDS011;10306;52.128;5.208;2023-06-05T02:22:15;6.37;;;5.77;;
20294;SDS011;10306;52.128;5.208;2023-06-05T02:24:41;5.43;;;5.00;;
20294;SDS011;10306;52.128;5.208;2023-06-05T02:27:07;6.13;;;5.63;;
20294;SDS011;10306;52.128;5.208;2023-06-05T02:29:35;6.43;;;5.57;;
20294;SDS011;10306;52.128;5.208;2023-06-05T02:32:01;5.93;;;5.30;;
20294;SDS011;10306;52.128;5.208;2023-06-05T02:34:27;7.40;;;6.00;;
20294;SDS011;10306;52.128;5.208;2023-06-05T02:36:53;7.33;;;5.80;;
20294;SDS011;10306;52.128;5.208;2023-06-05T02:39:20;6.23;;;5.73;;
20294;SDS011;10306;52.128;5.208;2023-06-05T02:41:46;8.37;;;5.80;;
20294;SDS011;10306;52.128;5.208;2023-06-05T02:44:12;5.77;;;5.33;;
20294;SDS011;10306;52.128;5.208;2023-06-05T02:46:38;7.83;;;6.00;;
20294;SDS011;10306;52.128;5.208;2023-06-05T02:49:04;6.10;;;5.60;;
20294;SDS011;10306;52.128;5.208;2023-06-05T02:51:30;6.80;;;6.10;;
20294;SDS011;10306;52.128;5.208;2023-06-05T02:53:56;6.30;;;5.80;;
20294;SDS011;10306;52.128;5.208;2023-06-05T02:56:22;6.87;;;6.27;;
20294;SDS011;10306;52.128;5.208;2023-06-05T02:58:50;6.67;;;5.37;;
20294;SDS011;10306;52.128;5.208;2023-06-05T03:01:16;6.30;;;5.80;;
20294;SDS011;10306;52.128;5.208;2023-06-05T03:03:42;6.90;;;5.80;;
20294;SDS011;10306;52.128;5.208;2023-06-05T03:06:08;8.20;;;6.03;;
20294;SDS011;10306;52.128;5.208;2023-06-05T03:08:34;6.30;;;5.67;;
20294;SDS011;10306;52.128;5.208;2023-06-05T03:11:00;8.70;;;5.77;;
20294;SDS011;10306;52.128;5.208;2023-06-05T03:13:27;7.00;;;6.30;;
20294;SDS011;10306;52.128;5.208;2023-06-05T03:15:53;5.80;;;5.40;;
20294;SDS011;10306;52.128;5.208;2023-06-05T03:18:22;7.73;;;6.17;;
20294;SDS011;10306;52.128;5.208;2023-06-05T03:20:48;6.23;;;5.63;;
20294;SDS011;10306;52.128;5.208;2023-06-05T03:23:24;9.67;;;5.43;;
20294;SDS011;10306;52.128;5.208;2023-06-05T03:25:50;8.77;;;6.33;;
20294;SDS011;10306;52.128;5.208;2023-06-05T03:28:17;9.37;;;6.93;;
20294;SDS011;10306;52.128;5.208;2023-06-05T03:30:44;7.10;;;6.10;;
20294;SDS011;10306;52.128;5.208;2023-06-05T03:33:10;6.30;;;5.80;;
20294;SDS011;10306;52.128;5.208;2023-06-05T03:35:36;7.57;;;6.77;;
20294;SDS011;10306;52.128;5.208;2023-06-05T03:38:02;8.10;;;6.80;;
20294;SDS011;10306;52.128;5.208;2023-06-05T03:40:28;7.27;;;6.57;;
20294;SDS011;10306;52.128;5.208;2023-06-05T03:42:54;6.57;;;6.07;;
20294;SDS011;10306;52.128;5.208;2023-06-05T03:45:20;8.00;;;6.93;;
20294;SDS011;10306;52.128;5.208;2023-06-05T03:47:47;6.27;;;5.77;;
20294;SDS011;10306;52.128;5.208;2023-06-05T03:50:14;7.03;;;6.30;;
20294;SDS011;10306;52.128;5.208;2023-06-05T03:52:42;8.17;;;7.07;;
20294;SDS011;10306;52.128;5.208;2023-06-05T03:55:09;7.67;;;6.13;;
20294;SDS011;10306;52.128;5.208;2023-06-05T03:57:35;10.20;;;6.50;;
20294;SDS011;10306;52.128;5.208;2023-06-05T04:00:03;8.70;;;7.27;;
20294;SDS011;10306;52.128;5.208;2023-06-05T04:02:29;7.53;;;6.47;;
20294;SDS011;10306;52.128;5.208;2023-06-05T04:04:55;7.67;;;6.87;;
20294;SDS011;10306;52.128;5.208;2023-06-05T04:07:21;7.93;;;6.97;;
20294;SDS011;10306;52.128;5.208;2023-06-05T04:09:47;7.83;;;6.67;;
20294;SDS011;10306;52.128;5.208;2023-06-05T04:12:13;7.37;;;6.47;;
20294;SDS011;10306;52.128;5.208;2023-06-05T04:14:39;10.43;;;6.23;;
20294;SDS011;10306;52.128;5.208;2023-06-05T04:17:05;8.17;;;6.53;;
20294;SDS011;10306;52.128;5.208;2023-06-05T04:19:31;12.40;;;7.63;;
20294;SDS011;10306;52.128;5.208;2023-06-05T04:21:57;7.30;;;6.53;;
20294;SDS011;10306;52.128;5.208;2023-06-05T04:24:25;8.70;;;6.53;;
20294;SDS011;10306;52.128;5.208;2023-06-05T04:26:51;6.73;;;6.07;;
20294;SDS011;10306;52.128;5.208;2023-06-05T04:29:17;8.67;;;6.53;;
20294;SDS011;10306;52.128;5.208;2023-06-05T04:31:43;7.60;;;6.47;;
20294;SDS011;10306;52.128;5.208;2023-06-05T04:34:09;6.70;;;6.10;;
20294;SDS011;10306;52.128;5.208;2023-06-05T04:36:36;8.87;;;6.30;;
20294;SDS011;10306;52.128;5.208;2023-06-05T04:39:02;6.03;;;5.60;;
20294;SDS011;10306;52.128;5.208;2023-06-05T04:41:38;6.87;;;6.27;;
20294;SDS011;10306;52.128;5.208;2023-06-05T04:44:09;8.20;;;6.30;;
20294;SDS011;10306;52.128;5.208;2023-06-05T04:46:36;6.83;;;6.13;;
20294;SDS011;10306;52.128;5.208;2023-06-05T04:49:03;6.77;;;5.97;;
20294;SDS011;10306;52.128;5.208;2023-06-05T04:51:29;8.63;;;5.77;;
20294;SDS011;10306;52.128;5.208;2023-06-05T04:53:56;6.70;;;5.97;;
20294;SDS011;10306;52.128;5.208;2023-06-05T04:56:22;7.27;;;6.50;;
20294;SDS011;10306;52.128;5.208;2023-06-05T04:58:48;6.60;;;6.00;;
20294;SDS011;10306;52.128;5.208;2023-06-05T05:01:16;9.33;;;6.30;;
20294;SDS011;10306;52.128;5.208;2023-06-05T05:03:42;7.57;;;6.50;;
20294;SDS011;10306;52.128;5.208;2023-06-05T05:06:10;7.17;;;5.77;;
20294;SDS011;10306;52.128;5.208;2023-06-05T05:08:39;7.87;;;6.40;;
20294;SDS011;10306;52.128;5.208;2023-06-05T05:11:05;8.43;;;6.30;;
20294;SDS011;10306;52.128;5.208;2023-06-05T05:13:31;7.07;;;6.07;;
20294;SDS011;10306;52.128;5.208;2023-06-05T05:15:57;9.47;;;7.50;;
20294;SDS011;10306;52.128;5.208;2023-06-05T05:18:23;8.03;;;6.10;;
20294;SDS011;10306;52.128;5.208;2023-06-05T05:20:49;6.43;;;5.77;;
20294;SDS011;10306;52.128;5.208;2023-06-05T05:23:15;6.47;;;5.73;;
20294;SDS011;10306;52.128;5.208;2023-06-05T05:25:41;7.07;;;5.80;;
20294;SDS011;10306;52.128;5.208;2023-06-05T05:28:07;6.97;;;6.27;;
20294;SDS011;10306;52.128;5.208;2023-06-05T05:30:34;7.70;;;6.20;;
20294;SDS011;10306;52.128;5.208;2023-06-05T05:33:00;6.50;;;5.90;;
20294;SDS011;10306;52.128;5.208;2023-06-05T05:35:26;9.57;;;6.43;;
20294;SDS011;10306;52.128;5.208;2023-06-05T05:37:52;7.00;;;5.90;;
20294;SDS011;10306;52.128;5.208;2023-06-05T05:40:18;9.43;;;5.97;;
20294;SDS011;10306;52.128;5.208;2023-06-05T05:42:44;8.07;;;5.93;;
20294;SDS011;10306;52.128;5.208;2023-06-05T05:45:09;7.00;;;6.40;;
20294;SDS011;10306;52.128;5.208;2023-06-05T05:47:35;6.27;;;5.67;;
20294;SDS011;10306;52.128;5.208;2023-06-05T05:50:01;7.03;;;6.37;;
20294;SDS011;10306;52.128;5.208;2023-06-05T05:52:27;7.47;;;6.67;;
20294;SDS011;10306;52.128;5.208;2023-06-05T05:54:53;6.67;;;5.97;;
20294;SDS011;10306;52.128;5.208;2023-06-05T05:57:19;9.00;;;6.93;;
20294;SDS011;10306;52.128;5.208;2023-06-05T05:59:45;8.97;;;6.57;;
20294;SDS011;10306;52.128;5.208;2023-06-05T06:02:11;6.60;;;6.00;;
20294;SDS011;10306;52.128;5.208;2023-06-05T06:04:38;7.13;;;6.43;;
20294;SDS011;10306;52.128;5.208;2023-06-05T06:07:05;8.30;;;6.10;;
20294;SDS011;10306;52.128;5.208;2023-06-05T06:09:31;7.90;;;6.87;;
20294;SDS011;10306;52.128;5.208;2023-06-05T06:11:58;7.07;;;6.43;;
20294;SDS011;10306;52.128;5.208;2023-06-05T06:14:27;8.13;;;6.73;;
20294;SDS011;10306;52.128;5.208;2023-06-05T06:16:53;8.50;;;7.17;;
20294;SDS011;10306;52.128;5.208;2023-06-05T06:19:20;7.60;;;6.90;;
20294;SDS011;10306;52.128;5.208;2023-06-05T06:21:49;7.83;;;7.00;;
20294;SDS011;10306;52.128;5.208;2023-06-05T06:24:16;11.10;;;7.57;;
20294;SDS011;10306;52.128;5.208;2023-06-05T06:26:45;9.57;;;6.87;;
20294;SDS011;10306;52.128;5.208;2023-06-05T06:29:13;6.90;;;6.20;;
20294;SDS011;10306;52.128;5.208;2023-06-05T06:31:39;8.73;;;6.87;;
20294;SDS011;10306;52.128;5.208;2023-06-05T06:34:05;7.37;;;6.43;;
20294;SDS011;10306;52.128;5.208;2023-06-05T06:36:31;7.67;;;6.97;;
20294;SDS011;10306;52.128;5.208;2023-06-05T06:38:57;8.23;;;7.10;;
20294;SDS011;10306;52.128;5.208;2023-06-05T06:41:23;7.40;;;6.60;;
20294;SDS011;10306;52.128;5.208;2023-06-05T06:43:50;7.23;;;6.43;;
20294;SDS011;10306;52.128;5.208;2023-06-05T06:46:17;7.60;;;7.00;;
20294;SDS011;10306;52.128;5.208;2023-06-05T06:48:43;9.40;;;6.27;;
20294;SDS011;10306;52.128;5.208;2023-06-05T06:51:10;7.17;;;6.50;;
20294;SDS011;10306;52.128;5.208;2023-06-05T06:53:36;7.53;;;6.83;;
20294;SDS011;10306;52.128;5.208;2023-06-05T06:56:02;6.60;;;6.00;;
20294;SDS011;10306;52.128;5.208;2023-06-05T06:58:28;8.77;;;6.93;;
20294;SDS011;10306;52.128;5.208;2023-06-05T07:00:54;7.10;;;6.50;;
20294;SDS011;10306;52.128;5.208;2023-06-05T07:03:20;6.90;;;6.30;;
20294;SDS011;10306;52.128;5.208;2023-06-05T07:05:48;6.87;;;6.17;;
20294;SDS011;10306;52.128;5.208;2023-06-05T07:08:14;7.03;;;6.37;;
20294;SDS011;10306;52.128;5.208;2023-06-05T07:10:40;7.60;;;6.23;;
20294;SDS011;10306;52.128;5.208;2023-06-05T07:13:07;7.33;;;6.63;;
20294;SDS011;10306;52.128;5.208;2023-06-05T07:15:33;7.20;;;6.60;;
20294;SDS011;10306;52.128;5.208;2023-06-05T07:17:59;7.53;;;6.50;;
20294;SDS011;10306;52.128;5.208;2023-06-05T07:20:25;7.37;;;6.53;;
20294;SDS011;10306;52.128;5.208;2023-06-05T07:22:51;10.77;;;6.77;;
20294;SDS011;10306;52.128;5.208;2023-06-05T07:25:17;7.33;;;5.90;;
20294;SDS011;10306;52.128;5.208;2023-06-05T07:27:46;7.60;;;6.77;;
20294;SDS011;10306;52.128;5.208;2023-06-05T07:30:12;6.00;;;5.53;;
20294;SDS011;10306;52.128;5.208;2023-06-05T07:32:39;7.00;;;6.40;;
20294;SDS011;10306;52.128;5.208;2023-06-05T07:35:07;7.30;;;6.57;;
20294;SDS011;10306;52.128;5.208;2023-06-05T07:37:33;6.60;;;6.00;;
20294;SDS011;10306;52.128;5.208;2023-06-05T07:39:59;8.27;;;5.90;;
20294;SDS011;10306;52.128;5.208;2023-06-05T07:42:25;5.97;;;5.40;;
20294;SDS011;10306;52.128;5.208;2023-06-05T07:44:51;7.13;;;6.23;;
20294;SDS011;10306;52.128;5.208;2023-06-05T07:47:17;8.07;;;6.57;;
20294;SDS011;10306;52.128;5.208;2023-06-05T07:49:43;7.57;;;6.77;;
20294;SDS011;10306;52.128;5.208;2023-06-05T07:52:09;6.97;;;6.37;;
20294;SDS011;10306;52.128;5.208;2023-06-05T07:54:35;6.43;;;5.83;;
20294;SDS011;10306;52.128;5.208;2023-06-05T07:57:01;6.73;;;6.03;;
20294;SDS011;10306;52.128;5.208;2023-06-05T07:59:29;6.63;;;5.93;;
20294;SDS011;10306;52.128;5.208;2023-06-05T08:01:57;6.73;;;6.03;;
20294;SDS011;10306;52.128;5.208;2023-06-05T08:04:24;6.20;;;5.70;;
20294;SDS011;10306;52.128;5.208;2023-06-05T08:06:52;5.97;;;5.40;;
20294;SDS011;10306;52.128;5.208;2023-06-05T08:09:18;5.00;;;4.70;;
20294;SDS011;10306;52.128;5.208;2023-06-05T08:11:44;5.43;;;5.03;;
20294;SDS011;10306;52.128;5.208;2023-06-05T08:14:10;5.70;;;5.30;;
20294;SDS011;10306;52.128;5.208;2023-06-05T08:16:36;5.90;;;5.30;;
20294;SDS011;10306;52.128;5.208;2023-06-05T08:19:02;5.83;;;5.17;;
20294;SDS011;10306;52.128;5.208;2023-06-05T08:21:28;5.50;;;4.90;;
20294;SDS011;10306;52.128;5.208;2023-06-05T08:23:55;5.87;;;5.47;;
20294;SDS011;10306;52.128;5.208;2023-06-05T08:26:21;5.10;;;4.70;;
20294;SDS011;10306;52.128;5.208;2023-06-05T08:28:47;5.73;;;5.23;;
20294;SDS011;10306;52.128;5.208;2023-06-05T08:31:13;5.77;;;4.93;;
20294;SDS011;10306;52.128;5.208;2023-06-05T08:33:41;8.30;;;6.00;;
20294;SDS011;10306;52.128;5.208;2023-06-05T08:36:07;9.37;;;5.13;;
20294;SDS011;10306;52.128;5.208;2023-06-05T08:38:33;5.10;;;4.80;;
20294;SDS011;10306;52.128;5.208;2023-06-05T08:41:04;6.10;;;5.50;;
20294;SDS011;10306;52.128;5.208;2023-06-05T08:43:35;5.50;;;5.10;;
20294;SDS011;10306;52.128;5.208;2023-06-05T08:46:01;5.40;;;5.00;;
20294;SDS011;10306;52.128;5.208;2023-06-05T08:48:27;6.67;;;6.00;;
20294;SDS011;10306;52.128;5.208;2023-06-05T08:50:55;6.00;;;5.50;;
20294;SDS011;10306;52.128;5.208;2023-06-05T08:53:22;6.07;;;5.47;;
20294;SDS011;10306;52.128;5.208;2023-06-05T08:55:54;6.80;;;5.20;;
20294;SDS011;10306;52.128;5.208;2023-06-05T08:58:21;6.73;;;6.00;;
20294;SDS011;10306;52.128;5.208;2023-06-05T09:00:47;7.93;;;6.27;;
20294;SDS011;10306;52.128;5.208;2023-06-05T09:03:14;9.40;;;5.87;;
20294;SDS011;10306;52.128;5.208;2023-06-05T09:05:45;8.27;;;5.70;;
20294;SDS011;10306;52.128;5.208;2023-06-05T09:08:12;5.23;;;4.83;;
20294;SDS011;10306;52.128;5.208;2023-06-05T09:10:38;4.93;;;4.57;;
20294;SDS011;10306;52.128;5.208;2023-06-05T09:13:04;5.17;;;4.70;;
20294;SDS011;10306;52.128;5.208;2023-06-05T09:15:30;7.93;;;4.97;;
20294;SDS011;10306;52.128;5.208;2023-06-05T09:18:07;4.70;;;4.30;;
20294;SDS011;10306;52.128;5.208;2023-06-05T09:20:34;4.90;;;4.60;;
20294;SDS011;10306;52.128;5.208;2023-06-05T09:23:03;5.07;;;4.63;;
20294;SDS011;10306;52.128;5.208;2023-06-05T09:25:46;4.40;;;4.10;;
20294;SDS011;10306;52.128;5.208;2023-06-05T09:28:13;5.80;;;4.07;;
20294;SDS011;10306;52.128;5.208;2023-06-05T09:30:53;3.87;;;3.63;;
20294;SDS011;10306;52.128;5.208;2023-06-05T09:33:20;4.20;;;3.90;;
20294;SDS011;10306;52.128;5.208;2023-06-05T09:35:48;4.00;;;3.80;;
20294;SDS011;10306;52.128;5.208;2023-06-05T09:38:26;4.38;;;4.03;;
20294;SDS011;10306;52.128;5.208;2023-06-05T09:40:52;6.30;;;4.40;;
20294;SDS011;10306;52.128;5.208;2023-06-05T09:43:22;4.30;;;4.00;;
20294;SDS011;10306;52.128;5.208;2023-06-05T09:45:48;3.97;;;3.77;;
20294;SDS011;10306;52.128;5.208;2023-06-05T09:48:14;4.47;;;4.18;;
20294;SDS011;10306;52.128;5.208;2023-06-05T09:50:40;4.30;;;4.00;;
20294;SDS011;10306;52.128;5.208;2023-06-05T09:53:06;4.28;;;3.80;;
20294;SDS011;10306;52.128;5.208;2023-06-05T09:55:33;4.15;;;3.40;;
20294;SDS011;10306;52.128;5.208;2023-06-05T09:58:00;4.20;;;3.90;;
20294;SDS011;10306;52.128;5.208;2023-06-05T10:00:36;3.97;;;3.67;;
20294;SDS011;10306;52.128;5.208;2023-06-05T10:03:14;6.22;;;3.40;;
20294;SDS011;10306;52.128;5.208;2023-06-05T10:05:41;4.00;;;3.80;;
20294;SDS011;10306;52.128;5.208;2023-06-05T10:08:08;4.10;;;3.90;;
20294;SDS011;10306;52.128;5.208;2023-06-05T10:10:36;3.70;;;3.50;;
20294;SDS011;10306;52.128;5.208;2023-06-05T10:13:02;4.00;;;3.78;;
20294;SDS011;10306;52.128;5.208;2023-06-05T10:15:28;4.30;;;4.00;;
20294;SDS011;10306;52.128;5.208;2023-06-05T10:17:56;3.42;;;3.22;;
20294;SDS011;10306;52.128;5.208;2023-06-05T10:20:22;3.38;;;3.17;;
20294;SDS011;10306;52.128;5.208;2023-06-05T10:22:49;4.40;;;4.10;;
20294;SDS011;10306;52.128;5.208;2023-06-05T10:25:15;3.60;;;3.30;;
20294;SDS011;10306;52.128;5.208;2023-06-05T10:27:50;3.50;;;3.20;;
20294;SDS011;10306;52.128;5.208;2023-06-05T10:30:25;3.85;;;3.55;;
20294;SDS011;10306;52.128;5.208;2023-06-05T10:35:45;4.00;;;3.70;;
20294;SDS011;10306;52.128;5.208;2023-06-05T10:38:22;4.25;;;3.95;;
20294;SDS011;10306;52.128;5.208;2023-06-05T10:40:53;4.32;;;4.03;;
20294;SDS011;10306;52.128;5.208;2023-06-05T10:45:54;3.70;;;3.42;;
20294;SDS011;10306;52.128;5.208;2023-06-05T10:48:21;4.85;;;4.32;;
20294;SDS011;10306;52.128;5.208;2023-06-05T10:50:47;3.95;;;3.65;;
20294;SDS011;10306;52.128;5.208;2023-06-05T10:55:57;4.10;;;3.80;;
20294;SDS011;10306;52.128;5.208;2023-06-05T10:58:23;4.28;;;3.97;;
20294;SDS011;10306;52.128;5.208;2023-06-05T11:06:20;4.30;;;4.00;;
20294;SDS011;10306;52.128;5.208;2023-06-05T11:14:18;3.78;;;3.58;;
20294;SDS011;10306;52.128;5.208;2023-06-05T11:16:44;5.60;;;4.38;;
20294;SDS011;10306;52.128;5.208;2023-06-05T11:19:55;3.95;;;3.60;;
20294;SDS011;10306;52.128;5.208;2023-06-05T11:22:09;4.03;;;3.72;;
20294;SDS011;10306;52.128;5.208;2023-06-05T11:24:37;4.20;;;3.90;;
20294;SDS011;10306;52.128;5.208;2023-06-05T11:27:03;3.47;;;3.17;;
20294;SDS011;10306;52.128;5.208;2023-06-05T11:29:30;4.00;;;3.60;;
20294;SDS011;10306;52.128;5.208;2023-06-05T11:31:56;3.97;;;3.47;;
20294;SDS011;10306;52.128;5.208;2023-06-05T11:34:22;3.10;;;2.90;;
20294;SDS011;10306;52.128;5.208;2023-06-05T11:36:48;3.78;;;3.30;;
20294;SDS011;10306;52.128;5.208;2023-06-05T11:39:14;3.30;;;3.10;;
20294;SDS011;10306;52.128;5.208;2023-06-05T11:41:47;3.20;;;3.00;;
20294;SDS011;10306;52.128;5.208;2023-06-05T11:44:14;3.38;;;2.55;;
20294;SDS011;10306;52.128;5.208;2023-06-05T11:46:41;3.10;;;2.90;;
20294;SDS011;10306;52.128;5.208;2023-06-05T11:49:09;3.25;;;3.05;;
20294;SDS011;10306;52.128;5.208;2023-06-05T11:51:48;2.90;;;2.75;;
20294;SDS011;10306;52.128;5.208;2023-06-05T11:54:26;6.50;;;3.08;;
20294;SDS011;10306;52.128;5.208;2023-06-05T11:56:56;3.75;;;3.55;;
20294;SDS011;10306;52.128;5.208;2023-06-05T11:59:22;3.17;;;2.97;;
20294;SDS011;10306;52.128;5.208;2023-06-05T12:01:49;2.95;;;2.75;;
20294;SDS011;10306;52.128;5.208;2023-06-05T12:04:19;3.72;;;2.83;;
20294;SDS011;10306;52.128;5.208;2023-06-05T12:06:45;3.67;;;3.00;;
20294;SDS011;10306;52.128;5.208;2023-06-05T12:09:12;3.50;;;3.20;;
20294;SDS011;10306;52.128;5.208;2023-06-05T12:11:41;3.30;;;3.10;;
20294;SDS011;10306;52.128;5.208;2023-06-05T12:14:09;2.97;;;2.78;;
20294;SDS011;10306;52.128;5.208;2023-06-05T12:16:44;3.45;;;3.25;;
20294;SDS011;10306;52.128;5.208;2023-06-05T12:19:14;6.30;;;3.13;;
20294;SDS011;10306;52.128;5.208;2023-06-05T12:21:42;3.80;;;3.40;;
20294;SDS011;10306;52.128;5.208;2023-06-05T12:24:08;3.88;;;3.47;;
20294;SDS011;10306;52.128;5.208;2023-06-05T12:29:18;3.70;;;2.85;;
20294;SDS011;10306;52.128;5.208;2023-06-05T12:31:45;2.97;;;2.88;;
20294;SDS011;10306;52.128;5.208;2023-06-05T12:34:11;3.45;;;3.00;;
20294;SDS011;10306;52.128;5.208;2023-06-05T12:36:38;3.25;;;3.05;;
20294;SDS011;10306;52.128;5.208;2023-06-05T12:39:04;3.08;;;2.88;;
20294;SDS011;10306;52.128;5.208;2023-06-05T12:41:31;3.40;;;3.20;;
20294;SDS011;10306;52.128;5.208;2023-06-05T12:44:01;3.40;;;3.20;;
20294;SDS011;10306;52.128;5.208;2023-06-05T12:46:29;3.53;;;3.22;;
20294;SDS011;10306;52.128;5.208;2023-06-05T12:48:55;3.10;;;2.90;;
20294;SDS011;10306;52.128;5.208;2023-06-05T12:51:23;4.00;;;2.90;;
20294;SDS011;10306;52.128;5.208;2023-06-05T12:53:50;3.50;;;3.00;;
20294;SDS011;10306;52.128;5.208;2023-06-05T12:56:16;3.67;;;3.13;;
20294;SDS011;10306;52.128;5.208;2023-06-05T12:58:42;3.97;;;3.00;;
20294;SDS011;10306;52.128;5.208;2023-06-05T13:01:08;3.22;;;3.03;;
20294;SDS011;10306;52.128;5.208;2023-06-05T13:03:35;3.50;;;3.20;;
20294;SDS011;10306;52.128;5.208;2023-06-05T13:06:01;3.33;;;2.90;;
20294;SDS011;10306;52.128;5.208;2023-06-05T13:08:28;3.17;;;2.88;;
20294;SDS011;10306;52.128;5.208;2023-06-05T13:10:55;3.35;;;3.15;;
20294;SDS011;10306;52.128;5.208;2023-06-05T13:13:21;3.00;;;2.90;;
20294;SDS011;10306;52.128;5.208;2023-06-05T13:15:47;3.50;;;3.20;;
20294;SDS011;10306;52.128;5.208;2023-06-05T13:18:13;3.38;;;3.15;;
20294;SDS011;10306;52.128;5.208;2023-06-05T13:20:39;3.22;;;3.08;;
20294;SDS011;10306;52.128;5.208;2023-06-05T13:23:05;2.83;;;2.63;;
20294;SDS011;10306;52.128;5.208;2023-06-05T13:25:32;2.83;;;2.63;;
20294;SDS011;10306;52.128;5.208;2023-06-05T13:27:58;3.10;;;3.00;;
20294;SDS011;10306;52.128;5.208;2023-06-05T13:30:24;2.97;;;2.55;;
20294;SDS011;10306;52.128;5.208;2023-06-05T13:32:50;2.95;;;2.80;;
20294;SDS011;10306;52.128;5.208;2023-06-05T13:35:19;2.83;;;2.72;;
20294;SDS011;10306;52.128;5.208;2023-06-05T13:37:45;2.83;;;2.72;;
20294;SDS011;10306;52.128;5.208;2023-06-05T13:40:13;3.20;;;2.95;;
20294;SDS011;10306;52.128;5.208;2023-06-05T13:42:40;2.50;;;2.40;;
20294;SDS011;10306;52.128;5.208;2023-06-05T13:45:06;2.88;;;2.67;;
20294;SDS011;10306;52.128;5.208;2023-06-05T13:47:32;3.08;;;2.88;;
20294;SDS011;10306;52.128;5.208;2023-06-05T13:49:58;3.13;;;3.00;;
20294;SDS011;10306;52.128;5.208;2023-06-05T13:52:25;2.70;;;2.60;;
20294;SDS011;10306;52.128;5.208;2023-06-05T13:54:51;2.95;;;2.60;;
20294;SDS011;10306;52.128;5.208;2023-06-05T13:57:17;2.83;;;2.72;;
20294;SDS011;10306;52.128;5.208;2023-06-05T13:59:43;2.70;;;2.60;;
20294;SDS011;10306;52.128;5.208;2023-06-05T14:02:10;2.72;;;2.58;;
20294;SDS011;10306;52.128;5.208;2023-06-05T14:04:36;2.72;;;2.53;;
20294;SDS011;10306;52.128;5.208;2023-06-05T14:07:02;3.22;;;2.92;;
20294;SDS011;10306;52.128;5.208;2023-06-05T14:09:28;2.92;;;2.80;;
20294;SDS011;10306;52.128;5.208;2023-06-05T14:11:54;3.60;;;2.90;;
20294;SDS011;10306;52.128;5.208;2023-06-05T14:14:21;2.83;;;2.72;;
20294;SDS011;10306;52.128;5.208;2023-06-05T14:16:47;2.83;;;2.60;;
20294;SDS011;10306;52.128;5.208;2023-06-05T14:19:13;2.88;;;2.67;;
20294;SDS011;10306;52.128;5.208;2023-06-05T14:21:39;3.33;;;3.13;;
20294;SDS011;10306;52.128;5.208;2023-06-05T14:24:06;3.65;;;3.45;;
20294;SDS011;10306;52.128;5.208;2023-06-05T14:26:32;3.28;;;3.08;;
20294;SDS011;10306;52.128;5.208;2023-06-05T14:28:58;3.40;;;3.20;;
20294;SDS011;10306;52.128;5.208;2023-06-05T14:31:24;4.80;;;3.17;;
20294;SDS011;10306;52.128;5.208;2023-06-05T14:33:52;3.28;;;2.95;;
20294;SDS011;10306;52.128;5.208;2023-06-05T14:36:18;3.45;;;3.15;;
20294;SDS011;10306;52.128;5.208;2023-06-05T14:38:44;3.10;;;2.90;;
20294;SDS011;10306;52.128;5.208;2023-06-05T14:41:10;3.55;;;3.28;;
20294;SDS011;10306;52.128;5.208;2023-06-05T14:43:36;3.50;;;3.20;;
20294;SDS011;10306;52.128;5.208;2023-06-05T14:46:02;5.95;;;3.58;;
20294;SDS011;10306;52.128;5.208;2023-06-05T14:48:29;3.10;;;2.90;;
20294;SDS011;10306;52.128;5.208;2023-06-05T14:50:55;3.67;;;2.75;;
20294;SDS011;10306;52.128;5.208;2023-06-05T14:53:21;2.85;;;2.72;;
20294;SDS011;10306;52.128;5.208;2023-06-05T14:55:47;3.50;;;3.30;;
20294;SDS011;10306;52.128;5.208;2023-06-05T14:58:13;4.03;;;3.47;;
20294;SDS011;10306;52.128;5.208;2023-06-05T15:00:39;3.65;;;3.35;;
20294;SDS011;10306;52.128;5.208;2023-06-05T15:03:05;3.65;;;3.45;;
20294;SDS011;10306;52.128;5.208;2023-06-05T15:05:31;3.60;;;3.30;;
20294;SDS011;10306;52.128;5.208;2023-06-05T15:07:57;3.75;;;3.55;;
20294;SDS011;10306;52.128;5.208;2023-06-05T15:10:24;3.58;;;3.28;;
20294;SDS011;10306;52.128;5.208;2023-06-05T15:12:50;3.22;;;3.03;;